Time;durP1;ratioP1;P1;durP2;ratioP2;P2;SDS_P1;SDS_P2;PMS_P1;PMS_P2;Temp;Humidity;BMP_temperature;BMP_pressure;BME280_temperature;BME280_humidity;BME280_pressure;Samples;Min_cycle;Max_cycle;Signal;HPM_P1;HPM_P2
2023/07/14 00:00:31;;;;;;;3.13;2.80;;;16.80;99.90;;;;;;5033017;28;20399;-88
2023/07/14 00:02:59;;;;;;;2.60;2.40;;;16.80;99.90;;;;;;5033860;28;20379;-87
2023/07/14 00:05:28;;;;;;;2.92;2.33;;;16.80;99.90;;;;;;5033758;28;20425;-88
2023/07/14 00:07:54;;;;;;;2.72;2.40;;;16.70;99.90;;;;;;5033355;28;20764;-88
2023/07/14 00:10:22;;;;;;;3.38;2.70;;;16.70;99.90;;;;;;5032487;28;20445;-87
2023/07/14 00:12:49;;;;;;;2.90;2.60;;;16.60;99.90;;;;;;5032799;28;20396;-88
2023/07/14 00:15:16;;;;;;;3.30;2.60;;;16.60;99.90;;;;;;5033222;28;20462;-88
2023/07/14 00:17:43;;;;;;;3.75;2.60;;;16.70;99.90;;;;;;5031997;28;20776;-88
2023/07/14 00:20:18;;;;;;;5.63;2.90;;;16.70;99.90;;;;;;5032612;28;20550;-89
2023/07/14 00:22:43;;;;;;;4.50;2.90;;;16.50;99.90;;;;;;5033127;28;20474;-87
2023/07/14 00:25:13;;;;;;;3.45;3.15;;;16.60;99.90;;;;;;5032864;28;20502;-88
2023/07/14 00:27:39;;;;;;;5.18;2.90;;;16.50;99.90;;;;;;5032676;28;20406;-88
2023/07/14 00:30:14;;;;;;;2.80;2.40;;;16.50;99.90;;;;;;5031842;28;20391;-88
2023/07/14 00:32:39;;;;;;;3.15;2.95;;;16.80;99.90;;;;;;5034007;28;20954;-87
2023/07/14 00:35:28;;;;;;;3.03;2.63;;;16.60;99.90;;;;;;5032281;28;20379;-88
2023/07/14 00:37:56;;;;;;;3.40;2.35;;;16.40;99.90;;;;;;5030673;28;20430;-88
2023/07/14 00:40:38;;;;;;;5.63;2.75;;;16.50;99.90;;;;;;5031999;28;20413;-88
2023/07/14 00:43:06;;;;;;;5.10;2.90;;;16.50;99.90;;;;;;5032908;28;20395;-88
2023/07/14 00:45:33;;;;;;;2.90;2.40;;;16.60;99.90;;;;;;5032073;28;20437;-87
2023/07/14 00:48:04;;;;;;;2.97;2.70;;;16.40;99.90;;;;;;5056387;22;20520;-82
2023/07/14 00:50:34;;;;;;;3.40;3.10;;;16.40;99.90;;;;;;5071896;28;20381;-81
2023/07/14 00:53:04;;;;;;;3.97;2.63;;;16.40;99.90;;;;;;5058479;28;20417;-80
2023/07/14 00:55:41;;;;;;;3.10;2.47;;;16.30;99.90;;;;;;5054953;28;20396;-82
2023/07/14 00:58:15;;;;;;;4.88;2.70;;;16.40;99.90;;;;;;5050978;28;20417;-81
2023/07/14 01:01:10;;;;;;;2.80;2.35;;;16.20;99.90;;;;;;5020830;28;20415;-80
2023/07/14 01:03:39;;;;;;;4.25;2.50;;;16.20;99.90;;;;;;5034949;28;20397;-81
2023/07/14 01:06:24;;;;;;;3.10;2.70;;;16.20;99.90;;;;;;5050720;28;20503;-80
2023/07/14 01:09:10;;;;;;;3.35;2.50;;;16.10;99.90;;;;;;5050497;28;20800;-81
2023/07/14 01:11:45;;;;;;;3.25;2.63;;;16.10;99.90;;;;;;5034025;28;20857;-81
2023/07/14 01:14:17;;;;;;;2.72;2.53;;;16.20;99.90;;;;;;5046820;28;20393;-81
2023/07/14 01:16:43;;;;;;;4.57;2.88;;;16.10;99.90;;;;;;5017301;28;20449;-82
2023/07/14 01:19:24;;;;;;;3.17;2.67;;;16.10;99.90;;;;;;5034650;28;20405;-80
2023/07/14 01:21:54;;;;;;;3.77;2.80;;;16.00;99.90;;;;;;5036942;28;20451;-81
2023/07/14 01:24:27;;;;;;;5.03;2.80;;;16.00;99.90;;;;;;5055038;28;20461;-81
2023/07/14 01:27:02;;;;;;;3.63;2.67;;;15.90;99.90;;;;;;5037130;28;20778;-81
2023/07/14 01:29:28;;;;;;;3.45;2.40;;;16.10;99.90;;;;;;5029899;28;20437;-79
2023/07/14 01:31:54;;;;;;;4.13;2.40;;;16.00;99.90;;;;;;5027952;28;20470;-81
2023/07/14 01:34:20;;;;;;;3.30;2.63;;;16.10;99.90;;;;;;5056666;28;20420;-81
2023/07/14 01:36:48;;;;;;;4.07;2.53;;;16.00;99.90;;;;;;5038586;28;20794;-81
2023/07/14 01:39:14;;;;;;;3.47;2.80;;;15.80;99.90;;;;;;5052084;28;20442;-81
2023/07/14 01:41:40;;;;;;;3.60;2.60;;;15.90;99.90;;;;;;5036457;28;20383;-81
2023/07/14 01:44:06;;;;;;;2.90;2.60;;;16.10;99.90;;;;;;5055955;28;20869;-81
2023/07/14 01:46:32;;;;;;;2.90;2.40;;;16.10;99.90;;;;;;5038169;28;20954;-82
2023/07/14 01:48:58;;;;;;;4.10;2.35;;;16.10;99.90;;;;;;5055668;28;20424;-81
2023/07/14 01:51:34;;;;;;;2.50;2.30;;;16.00;99.90;;;;;;5035906;28;20930;-81
2023/07/14 01:54:10;;;;;;;3.80;2.85;;;16.10;99.90;;;;;;5055403;28;20385;-82
2023/07/14 01:56:37;;;;;;;2.90;2.60;;;16.10;99.90;;;;;;5055380;28;20459;-80
2023/07/14 01:59:21;;;;;;;3.20;2.50;;;16.10;99.90;;;;;;5039687;28;20474;-81
2023/07/14 02:01:50;;;;;;;2.47;2.28;;;16.00;99.90;;;;;;5035743;28;20433;-81
2023/07/14 02:04:24;;;;;;;2.55;2.30;;;16.00;99.90;;;;;;5035443;28;20403;-81
2023/07/14 02:06:49;;;;;;;4.40;2.60;;;15.90;99.90;;;;;;5035287;28;20391;-82
2023/07/14 02:09:20;;;;;;;2.95;2.65;;;15.90;99.90;;;;;;5029349;28;20442;-82
2023/07/14 02:11:53;;;;;;;3.47;2.90;;;16.00;99.90;;;;;;5017060;28;20387;-82
2023/07/14 02:14:20;;;;;;;2.70;2.50;;;15.90;99.90;;;;;;5017212;28;20387;-81
2023/07/14 02:16:48;;;;;;;3.20;2.30;;;15.80;99.90;;;;;;5035236;28;20399;-81
2023/07/14 02:19:19;;;;;;;2.75;2.45;;;15.80;99.90;;;;;;5056466;28;20455;-81
2023/07/14 02:21:46;;;;;;;3.75;2.50;;;15.80;99.90;;;;;;5056732;28;20449;-81
2023/07/14 02:24:21;;;;;;;3.30;2.60;;;15.80;99.90;;;;;;5053542;28;20450;-81
2023/07/14 02:26:52;;;;;;;4.72;3.00;;;15.90;99.90;;;;;;5058095;28;20389;-82
2023/07/14 02:29:17;;;;;;;4.55;2.35;;;15.80;99.90;;;;;;5018678;28;20395;-82
2023/07/14 02:31:50;;;;;;;3.15;2.55;;;15.80;99.90;;;;;;5018293;28;20483;-82
2023/07/14 02:34:16;;;;;;;4.00;2.97;;;15.80;99.90;;;;;;5018216;28;20851;-82
2023/07/14 02:37:00;;;;;;;2.90;2.50;;;15.80;99.90;;;;;;5018257;28;20411;-82
2023/07/14 02:39:30;;;;;;;2.70;2.50;;;15.80;99.90;;;;;;5028925;28;20399;-82
2023/07/14 02:41:57;;;;;;;2.45;2.25;;;15.70;99.90;;;;;;5035369;28;20379;-82
2023/07/14 02:44:32;;;;;;;3.17;2.88;;;15.70;99.90;;;;;;5017785;28;20398;-81
2023/07/14 02:47:17;;;;;;;3.58;2.42;;;15.70;99.90;;;;;;5037333;28;20397;-82
2023/07/14 02:49:48;;;;;;;3.20;2.80;;;15.60;99.90;;;;;;5028001;28;20490;-81
2023/07/14 02:52:13;;;;;;;3.83;2.70;;;15.60;99.90;;;;;;5057807;28;20471;-80
2023/07/14 02:54:40;;;;;;;3.20;2.50;;;15.60;99.90;;;;;;5040507;28;20395;-80
2023/07/14 02:57:06;;;;;;;3.38;3.08;;;15.50;99.90;;;;;;5046676;28;20520;-80
2023/07/14 02:59:32;;;;;;;2.88;2.58;;;15.40;99.90;;;;;;5034962;28;20385;-80
2023/07/14 03:01:59;;;;;;;3.30;2.50;;;15.60;99.90;;;;;;5042341;28;20402;-80
2023/07/14 03:04:24;;;;;;;3.00;2.70;;;15.60;99.90;;;;;;5032760;28;20402;-80
2023/07/14 03:06:50;;;;;;;3.37;2.90;;;15.50;99.90;;;;;;5015264;28;20379;-81
2023/07/14 03:09:16;;;;;;;2.63;2.42;;;15.50;99.90;;;;;;5017627;28;20391;-81
2023/07/14 03:11:42;;;;;;;2.90;2.60;;;15.60;99.90;;;;;;5059155;28;20409;-81
2023/07/14 03:14:08;;;;;;;4.57;2.40;;;15.60;99.90;;;;;;5053188;28;20374;-82
2023/07/14 03:16:34;;;;;;;3.20;2.40;;;15.60;99.90;;;;;;5017341;28;20408;-82
2023/07/14 03:18:59;;;;;;;3.00;2.17;;;15.70;99.90;;;;;;5016893;28;20456;-82
2023/07/14 03:21:25;;;;;;;7.23;3.10;;;15.70;99.90;;;;;;5035162;28;20470;-82
2023/07/14 03:23:50;;;;;;;3.40;2.50;;;15.60;99.90;;;;;;5034333;28;20395;-81
2023/07/14 03:26:16;;;;;;;2.95;2.50;;;15.60;99.90;;;;;;5057875;28;20416;-81
2023/07/14 03:28:41;;;;;;;2.70;2.50;;;15.50;99.90;;;;;;5058284;28;20391;-81
2023/07/14 03:31:08;;;;;;;4.87;2.73;;;15.60;99.90;;;;;;5052545;28;20378;-81
2023/07/14 03:33:34;;;;;;;3.72;2.30;;;15.50;99.90;;;;;;5045877;28;20481;-82
2023/07/14 03:36:05;;;;;;;3.47;2.90;;;15.50;99.90;;;;;;5055535;28;20408;-82
2023/07/14 03:38:38;;;;;;;3.47;2.97;;;15.60;99.90;;;;;;5055031;28;20485;-83
2023/07/14 03:41:03;;;;;;;2.58;2.38;;;15.60;99.90;;;;;;5037752;28;20397;-82
2023/07/14 03:43:28;;;;;;;3.10;2.63;;;15.50;99.90;;;;;;5033835;28;20391;-82
2023/07/14 03:45:56;;;;;;;4.22;2.80;;;15.70;99.90;;;;;;5034548;28;20398;-82
2023/07/14 03:48:23;;;;;;;3.35;2.40;;;15.60;99.90;;;;;;5053202;28;20401;-82
2023/07/14 03:50:48;;;;;;;2.93;2.40;;;15.70;99.90;;;;;;5054978;28;20393;-81
2023/07/14 03:53:14;;;;;;;5.50;2.63;;;15.60;99.90;;;;;;5054650;28;20389;-82
2023/07/14 03:55:40;;;;;;;3.95;2.22;;;15.60;99.90;;;;;;5054441;28;20461;-82
2023/07/14 03:58:06;;;;;;;4.85;2.90;;;15.40;99.90;;;;;;5021158;28;20908;-82
2023/07/14 04:00:32;;;;;;;3.37;2.70;;;15.40;99.90;;;;;;5015948;28;20403;-82
2023/07/14 04:02:58;;;;;;;3.70;2.72;;;15.50;99.90;;;;;;5053574;28;20906;-82
2023/07/14 04:05:26;;;;;;;2.70;2.20;;;15.60;99.90;;;;;;5054103;28;20786;-82
2023/07/14 04:07:52;;;;;;;2.75;2.55;;;15.50;99.90;;;;;;5054120;28;20394;-82
2023/07/14 04:10:18;;;;;;;3.67;2.40;;;15.40;99.90;;;;;;5053752;28;20825;-82
2023/07/14 04:12:47;;;;;;;3.13;2.83;;;15.40;99.90;;;;;;5037642;28;20422;-82
2023/07/14 04:15:12;;;;;;;2.60;2.40;;;15.40;99.90;;;;;;5035068;28;20387;-82
2023/07/14 04:17:38;;;;;;;2.80;2.40;;;15.40;99.90;;;;;;5053707;28;20871;-82
2023/07/14 04:20:05;;;;;;;2.80;2.50;;;15.50;99.90;;;;;;5053741;28;20386;-81
2023/07/14 04:22:31;;;;;;;4.32;2.40;;;15.50;99.90;;;;;;5053697;28;20397;-82
2023/07/14 04:24:58;;;;;;;5.32;2.90;;;15.60;99.90;;;;;;5035669;28;20433;-82
2023/07/14 04:27:24;;;;;;;3.05;2.70;;;15.50;99.90;;;;;;5035156;28;20402;-82
2023/07/14 04:29:50;;;;;;;3.33;2.60;;;15.60;99.90;;;;;;5040692;28;20414;-83
2023/07/14 04:32:15;;;;;;;3.47;2.40;;;15.60;99.90;;;;;;5035354;28;20393;-82
2023/07/14 04:34:41;;;;;;;4.70;3.03;;;15.60;99.90;;;;;;5036657;28;20419;-82
2023/07/14 04:37:07;;;;;;;4.80;2.42;;;15.60;99.90;;;;;;5036578;28;20407;-82
2023/07/14 04:39:33;;;;;;;4.10;2.40;;;15.50;99.90;;;;;;5032008;28;20456;-82
2023/07/14 04:41:58;;;;;;;3.50;2.60;;;15.60;99.90;;;;;;5017092;28;20391;-82
2023/07/14 04:44:24;;;;;;;2.60;2.40;;;15.50;99.90;;;;;;5034821;28;20422;-82
2023/07/14 04:46:50;;;;;;;3.47;2.70;;;15.60;99.90;;;;;;5017793;28;20434;-83
2023/07/14 04:49:16;;;;;;;4.03;2.80;;;15.60;99.90;;;;;;5031393;28;20484;-82
2023/07/14 04:51:41;;;;;;;3.80;2.60;;;15.50;99.90;;;;;;5069741;28;20487;-80
2023/07/14 04:54:08;;;;;;;4.05;2.65;;;15.60;99.90;;;;;;5065114;28;20404;-83
2023/07/14 04:56:34;;;;;;;3.10;2.80;;;15.70;99.90;;;;;;5057319;28;20436;-81
2023/07/14 04:59:00;;;;;;;3.83;2.50;;;15.70;99.90;;;;;;5054147;28;20421;-81
2023/07/14 05:01:27;;;;;;;2.90;2.60;;;15.70;99.90;;;;;;5060672;28;20447;-81
2023/07/14 05:03:53;;;;;;;3.20;2.90;;;15.60;99.90;;;;;;5063469;28;20453;-81
2023/07/14 05:06:19;;;;;;;2.25;2.03;;;15.70;99.90;;;;;;5080435;28;20381;-80
2023/07/14 05:08:45;;;;;;;9.00;3.00;;;15.80;99.90;;;;;;5079909;28;20388;-81
2023/07/14 05:11:10;;;;;;;3.63;2.47;;;15.80;99.90;;;;;;5062319;28;20401;-82
2023/07/14 05:13:36;;;;;;;4.57;2.40;;;15.90;99.90;;;;;;5059706;28;20453;-82
2023/07/14 05:16:01;;;;;;;3.15;2.35;;;15.90;99.90;;;;;;5039666;28;20387;-83
2023/07/14 05:18:27;;;;;;;3.30;2.50;;;16.00;99.90;;;;;;5039016;28;20441;-82
2023/07/14 05:20:58;;;;;;;2.90;2.50;;;16.10;99.90;;;;;;5036065;28;20387;-82
2023/07/14 05:23:25;;;;;;;5.95;2.50;;;16.10;99.90;;;;;;5053341;28;20397;-82
2023/07/14 05:25:51;;;;;;;4.90;2.50;;;16.30;99.90;;;;;;5058054;28;20388;-81
2023/07/14 05:28:17;;;;;;;3.58;2.60;;;16.30;99.90;;;;;;5030289;28;20391;-81
2023/07/14 05:30:43;;;;;;;3.17;2.30;;;16.40;99.90;;;;;;5034891;28;20399;-82
2023/07/14 05:33:09;;;;;;;2.90;2.50;;;16.50;99.90;;;;;;5031679;28;20398;-82
2023/07/14 05:35:35;;;;;;;4.63;2.50;;;16.60;99.90;;;;;;5070056;28;20424;-81
2023/07/14 05:38:01;;;;;;;4.07;2.50;;;16.60;99.90;;;;;;5044775;28;20405;-83
2023/07/14 05:40:27;;;;;;;3.10;2.30;;;16.60;99.90;;;;;;5018776;28;20400;-83
2023/07/14 05:42:53;;;;;;;3.20;2.50;;;16.70;99.90;;;;;;5029082;28;20393;-82
2023/07/14 05:45:19;;;;;;;3.00;2.70;;;16.90;99.90;;;;;;5056854;28;20507;-81
2023/07/14 05:47:46;;;;;;;4.60;2.70;;;17.00;99.90;;;;;;5021104;28;20411;-82
2023/07/14 05:50:12;;;;;;;4.10;2.28;;;17.00;99.90;;;;;;5038222;28;20745;-82
2023/07/14 05:52:38;;;;;;;3.00;2.20;;;17.00;99.90;;;;;;5037960;28;20394;-82
2023/07/14 05:55:05;;;;;;;4.87;2.60;;;17.20;99.90;;;;;;5036763;28;20474;-82
2023/07/14 05:57:32;;;;;;;5.65;2.28;;;17.30;99.90;;;;;;5036785;28;20776;-82
2023/07/14 05:59:57;;;;;;;2.67;2.28;;;17.30;99.90;;;;;;5037037;28;20383;-81
2023/07/14 06:02:23;;;;;;;5.15;2.70;;;17.40;99.90;;;;;;5034295;28;20399;-82
2023/07/14 06:04:49;;;;;;;4.10;2.33;;;17.50;99.90;;;;;;5034048;28;20421;-82
2023/07/14 06:07:15;;;;;;;3.70;2.30;;;17.50;99.90;;;;;;5035291;28;20387;-81
2023/07/14 06:09:41;;;;;;;3.33;2.63;;;17.60;99.90;;;;;;5034697;28;20889;-81
2023/07/14 06:12:09;;;;;;;3.20;2.30;;;17.70;99.90;;;;;;5035710;28;20524;-81
2023/07/14 06:14:37;;;;;;;3.13;2.22;;;17.70;99.90;;;;;;5033762;28;20395;-82
2023/07/14 06:17:03;;;;;;;2.63;2.42;;;17.80;99.90;;;;;;5034318;28;20778;-82
2023/07/14 06:19:29;;;;;;;3.00;2.20;;;17.80;99.90;;;;;;5032472;28;20388;-80
2023/07/14 06:21:56;;;;;;;2.70;2.50;;;18.00;99.90;;;;;;5034209;28;20387;-81
2023/07/14 06:24:22;;;;;;;4.47;2.35;;;18.10;99.90;;;;;;5033503;28;20387;-81
2023/07/14 06:26:48;;;;;;;3.45;2.45;;;18.20;99.90;;;;;;5032838;28;20470;-80
2023/07/14 06:29:14;;;;;;;2.55;2.00;;;18.20;99.90;;;;;;5034194;28;20881;-81
2023/07/14 06:31:40;;;;;;;2.25;1.88;;;18.40;99.90;;;;;;5035280;28;20395;-80
2023/07/14 06:34:06;;;;;;;3.60;2.50;;;18.40;99.90;;;;;;5043138;28;20414;-78
2023/07/14 06:36:32;;;;;;;3.10;2.20;;;18.60;99.90;;;;;;5018540;28;20967;-79
2023/07/14 06:38:58;;;;;;;3.53;2.10;;;18.60;99.90;;;;;;5040228;28;20466;-79
2023/07/14 06:41:23;;;;;;;2.78;1.88;;;18.70;99.90;;;;;;5034013;28;20538;-78
2023/07/14 06:43:49;;;;;;;4.27;2.40;;;18.90;99.90;;;;;;5055197;28;20871;-79
2023/07/14 06:46:14;;;;;;;3.00;2.00;;;19.00;99.90;;;;;;5036751;28;20390;-79
2023/07/14 06:48:40;;;;;;;2.63;2.10;;;19.20;99.90;;;;;;5030542;22;20844;-90
2023/07/14 06:51:06;;;;;;;3.53;2.30;;;19.40;99.90;;;;;;4977080;28;20395;-86
2023/07/14 06:53:31;;;;;;;3.45;2.40;;;19.50;99.90;;;;;;4985232;28;20384;-86
2023/07/14 06:55:57;;;;;;;2.50;2.10;;;19.50;99.90;;;;;;4996442;28;20891;-86
2023/07/14 06:58:22;;;;;;;4.65;2.20;;;19.60;99.90;;;;;;5013102;28;20401;-88
2023/07/14 07:00:48;;;;;;;4.00;2.30;;;19.60;99.90;;;;;;4997488;28;20755;-88
2023/07/14 07:03:13;;;;;;;5.00;2.50;;;19.70;99.90;;;;;;4992318;28;20416;-88
2023/07/14 07:05:42;;;;;;;3.55;2.33;;;19.80;99.90;;;;;;4976787;28;20406;-88
2023/07/14 07:08:10;;;;;;;3.30;2.00;;;19.80;99.90;;;;;;4978005;28;20399;-88
2023/07/14 07:10:35;;;;;;;3.05;2.30;;;19.90;99.90;;;;;;4980058;28;20508;-90
2023/07/14 07:13:06;;;;;;;4.30;2.20;;;20.00;99.90;;;;;;4976064;28;20971;-88
2023/07/14 07:15:32;;;;;;;3.17;2.55;;;20.70;99.90;;;;;;4978215;28;20912;-89
2023/07/14 07:17:57;;;;;;;3.63;2.15;;;20.00;99.90;;;;;;4993231;28;20410;-87
2023/07/14 07:20:23;;;;;;;2.60;2.40;;;20.30;99.90;;;;;;4974485;28;20402;-88
2023/07/14 07:22:49;;;;;;;2.47;2.28;;;20.40;99.90;;;;;;4981869;28;20397;-88
2023/07/14 07:25:16;;;;;;;3.35;2.35;;;20.20;99.90;;;;;;4995504;28;20381;-87
2023/07/14 07:27:42;;;;;;;4.05;2.60;;;20.40;99.90;;;;;;4990120;28;20436;-88
2023/07/14 07:30:09;;;;;;;3.50;2.00;;;20.30;99.90;;;;;;4993652;28;20396;-87
2023/07/14 07:32:35;;;;;;;3.35;2.50;;;20.50;99.90;;;;;;4978163;28;20976;-88
2023/07/14 07:35:00;;;;;;;4.15;2.58;;;20.50;99.90;;;;;;4981700;28;20414;-88
2023/07/14 07:37:27;;;;;;;2.53;2.27;;;20.40;99.90;;;;;;4980678;28;20410;-88
2023/07/14 07:39:55;;;;;;;5.25;2.45;;;20.50;99.90;;;;;;4976620;28;20489;-88
2023/07/14 07:42:22;;;;;;;4.43;2.60;;;21.20;99.90;;;;;;4981667;28;20389;-88
2023/07/14 07:44:48;;;;;;;2.72;2.20;;;20.60;99.90;;;;;;4995663;28;20432;-88
2023/07/14 07:47:13;;;;;;;3.80;2.60;;;20.60;99.90;;;;;;4995867;28;20417;-88
2023/07/14 07:49:39;;;;;;;3.40;2.60;;;20.60;99.90;;;;;;4995053;28;20400;-88
2023/07/14 07:52:06;;;;;;;4.88;3.42;;;20.80;99.90;;;;;;4994712;28;20441;-86
2023/07/14 07:54:31;;;;;;;3.10;2.80;;;20.80;99.90;;;;;;4995476;28;20393;-88
2023/07/14 07:56:57;;;;;;;3.53;3.00;;;20.90;99.90;;;;;;5003438;28;20410;-88
2023/07/14 07:59:23;;;;;;;4.50;2.90;;;21.00;99.90;;;;;;4975511;28;20915;-88
2023/07/14 08:01:48;;;;;;;6.45;2.92;;;21.10;99.90;;;;;;4975886;28;20398;-87
2023/07/14 08:04:16;;;;;;;3.27;2.97;;;21.00;99.90;;;;;;4975623;28;20877;-85
2023/07/14 08:06:41;;;;;;;9.05;3.40;;;21.10;99.90;;;;;;4988433;28;20398;-88
2023/07/14 08:09:09;;;;;;;6.40;3.00;;;21.20;99.90;;;;;;4993980;28;20400;-88
2023/07/14 08:11:35;;;;;;;3.50;2.80;;;21.20;99.90;;;;;;4976412;28;20394;-88
2023/07/14 08:14:02;;;;;;;6.75;2.80;;;21.10;99.90;;;;;;4992840;28;20404;-88
2023/07/14 08:16:28;;;;;;;3.65;2.80;;;21.30;99.90;;;;;;4977393;28;20477;-89
2023/07/14 08:18:54;;;;;;;4.10;3.40;;;21.30;99.90;;;;;;4974787;28;20445;-89
2023/07/14 08:21:20;;;;;;;3.50;2.90;;;21.20;99.90;;;;;;4974340;28;20391;-88
2023/07/14 08:23:45;;;;;;;4.60;3.17;;;21.20;99.90;;;;;;4992759;28;20427;-86
2023/07/14 08:26:12;;;;;;;4.43;2.80;;;21.10;99.90;;;;;;4975010;28;20405;-89
2023/07/14 08:28:38;;;;;;;4.90;3.13;;;21.30;99.90;;;;;;4974918;28;20425;-87
2023/07/14 08:31:06;;;;;;;3.75;2.60;;;21.40;99.90;;;;;;4975703;28;20430;-88
2023/07/14 08:33:33;;;;;;;4.30;2.97;;;21.40;99.90;;;;;;4975735;28;20399;-89
2023/07/14 08:36:02;;;;;;;5.85;2.88;;;21.50;99.90;;;;;;4978999;28;20490;-87
2023/07/14 08:38:33;;;;;;;4.55;3.20;;;21.50;99.90;;;;;;4988221;28;20512;-83
2023/07/14 08:41:28;;;;;;;4.32;2.80;;;21.50;99.90;;;;;;4974351;28;20789;-85
2023/07/14 08:44:22;;;;;;;6.50;3.38;;;21.60;99.90;;;;;;4958700;28;20401;-84
2023/07/14 08:47:03;;;;;;;3.25;2.85;;;21.60;99.90;;;;;;4983489;28;20448;-84
2023/07/14 08:49:37;;;;;;;3.53;2.90;;;21.40;99.90;;;;;;4974228;28;20410;-84
2023/07/14 08:52:08;;;;;;;3.80;2.90;;;21.60;99.90;;;;;;4978946;28;20819;-84
2023/07/14 08:55:14;;;;;;;6.25;3.33;;;21.80;99.90;;;;;;4993192;28;20410;-84
2023/07/14 08:57:50;;;;;;;5.50;3.20;;;21.80;99.90;;;;;;4893903;29;20427;-83
2023/07/14 09:00:24;;;;;;;4.60;2.83;;;21.80;99.90;;;;;;4980680;28;20799;-84
2023/07/14 09:03:21;;;;;;;3.25;2.95;;;21.80;99.90;;;;;;4970283;28;20540;-83
2023/07/14 09:05:54;;;;;;;3.65;2.83;;;21.80;99.90;;;;;;4959341;28;20447;-84
2023/07/14 09:08:26;;;;;;;5.50;3.53;;;21.80;99.90;;;;;;4976276;28;20457;-83
2023/07/14 09:11:28;;;;;;;3.42;3.00;;;21.80;99.90;;;;;;4981168;28;20419;-85
2023/07/14 09:14:14;;;;;;;5.25;2.60;;;21.90;99.90;;;;;;4983069;28;20398;-85
2023/07/14 09:17:00;;;;;;;3.60;2.90;;;22.10;99.90;;;;;;4979924;28;20917;-85
2023/07/14 09:19:57;;;;;;;3.58;2.60;;;22.00;99.90;;;;;;4930556;28;20403;-84
2023/07/14 09:22:43;;;;;;;3.67;3.20;;;22.10;99.90;;;;;;4982434;28;20880;-85
2023/07/14 09:25:18;;;;;;;3.40;3.10;;;21.90;99.90;;;;;;4977129;28;20410;-85
2023/07/14 09:27:46;;;;;;;5.33;3.30;;;22.00;99.90;;;;;;4996474;28;20444;-85
2023/07/14 09:30:23;;;;;;;3.75;3.35;;;22.00;99.90;;;;;;4977457;28;20814;-85
2023/07/14 09:32:52;;;;;;;3.90;3.47;;;22.10;99.90;;;;;;4997522;28;20421;-84
2023/07/14 09:35:21;;;;;;;4.78;3.47;;;22.10;99.90;;;;;;4996738;28;20453;-85
2023/07/14 09:38:10;;;;;;;6.32;3.20;;;22.20;99.90;;;;;;4978481;28;20406;-84
2023/07/14 09:40:38;;;;;;;3.50;3.00;;;22.20;99.90;;;;;;4996266;28;20394;-83
2023/07/14 09:43:05;;;;;;;3.80;3.30;;;22.30;99.90;;;;;;4983046;28;20485;-84
2023/07/14 09:45:33;;;;;;;3.70;3.40;;;22.50;99.90;;;;;;4981368;28;20405;-84
2023/07/14 09:48:16;;;;;;;5.60;3.40;;;22.40;99.90;;;;;;4997122;28;20892;-84
2023/07/14 09:51:00;;;;;;;3.78;2.90;;;22.40;99.90;;;;;;4994665;28;20400;-84
2023/07/14 09:53:33;;;;;;;4.40;3.05;;;22.60;99.90;;;;;;4994954;28;20891;-84
2023/07/14 09:56:16;;;;;;;4.45;2.80;;;22.70;99.90;;;;;;4984364;28;20803;-83
2023/07/14 09:58:52;;;;;;;5.30;2.80;;;23.00;99.90;;;;;;5005505;28;20485;-84
2023/07/14 10:01:18;;;;;;;3.13;2.50;;;23.20;99.90;;;;;;4997539;28;20810;-83
2023/07/14 10:03:56;;;;;;;4.80;3.00;;;23.30;99.90;;;;;;4993792;28;20387;-83
2023/07/14 10:06:26;;;;;;;4.70;3.20;;;23.10;99.90;;;;;;4997179;28;20390;-84
2023/07/14 10:08:54;;;;;;;4.70;2.90;;;23.00;99.90;;;;;;4990492;28;20428;-85
2023/07/14 10:11:27;;;;;;;4.90;2.95;;;23.40;99.90;;;;;;5013329;28;20397;-82
2023/07/14 10:14:17;;;;;;;6.28;2.92;;;23.50;99.90;;;;;;4984584;28;20405;-83
2023/07/14 10:16:44;;;;;;;3.35;2.63;;;23.50;99.90;;;;;;4995680;28;20390;-84
2023/07/14 10:19:20;;;;;;;3.33;3.03;;;23.70;99.90;;;;;;4994404;28;20409;-84
2023/07/14 10:21:59;;;;;;;3.20;2.50;;;23.80;99.90;;;;;;4979265;28;20390;-83
2023/07/14 10:24:27;;;;;;;2.78;2.50;;;23.70;99.90;;;;;;4993267;28;20488;-83
2023/07/14 10:27:02;;;;;;;5.18;3.20;;;24.00;99.90;;;;;;4994553;28;20395;-83
2023/07/14 10:29:46;;;;;;;4.03;2.50;;;24.00;99.90;;;;;;4993826;28;20757;-84
2023/07/14 10:32:33;;;;;;;5.27;2.80;;;24.20;99.90;;;;;;4997309;28;20425;-83
2023/07/14 10:35:23;;;;;;;3.95;2.60;;;24.00;99.90;;;;;;4987117;28;20399;-83
2023/07/14 10:38:00;;;;;;;4.82;2.70;;;24.00;99.90;;;;;;4980202;28;20407;-84
2023/07/14 10:40:33;;;;;;;3.33;2.67;;;24.00;99.90;;;;;;4990544;28;20513;-83
2023/07/14 10:43:28;;;;;;;2.73;2.20;;;24.30;99.90;;;;;;4991026;28;20398;-82
2023/07/14 10:45:58;;;;;;;3.53;2.53;;;24.60;99.90;;;;;;4976389;28;20395;-84
2023/07/14 10:48:38;;;;;;;3.38;2.60;;;24.30;99.90;;;;;;4988959;28;20476;-84
2023/07/14 10:51:22;;;;;;;3.20;2.50;;;24.60;99.90;;;;;;5005024;28;20416;-84
2023/07/14 10:53:59;;;;;;;3.50;2.25;;;24.60;99.90;;;;;;4995078;28;20444;-83
2023/07/14 10:56:31;;;;;;;3.93;2.50;;;24.70;99.90;;;;;;4978200;28;20836;-83
2023/07/14 10:59:08;;;;;;;4.80;2.30;;;24.70;99.90;;;;;;4993067;28;20939;-83
2023/07/14 11:01:37;;;;;;;2.90;2.40;;;24.90;99.90;;;;;;4979118;28;20466;-84
2023/07/14 11:04:26;;;;;;;3.10;2.10;;;25.10;99.90;;;;;;5008421;28;20481;-82
2023/07/14 11:06:55;;;;;;;3.55;2.55;;;25.20;99.90;;;;;;5003462;28;20466;-83
2023/07/14 11:09:20;;;;;;;2.78;2.00;;;25.30;99.90;;;;;;4988564;28;20390;-83
2023/07/14 11:12:13;;;;;;;2.45;2.25;;;25.20;99.90;;;;;;4990775;28;20773;-83
2023/07/14 11:14:55;;;;;;;6.23;2.60;;;25.00;99.90;;;;;;4993394;28;20402;-83
2023/07/14 11:17:46;;;;;;;6.47;2.60;;;25.30;99.90;;;;;;4994166;28;20414;-84
2023/07/14 11:20:40;;;;;;;2.78;2.28;;;25.50;99.90;;;;;;4972003;28;20934;-82
2023/07/14 11:23:42;;;;;;;3.38;2.35;;;25.50;99.90;;;;;;5000766;28;20400;-84
2023/07/14 11:26:29;;;;;;;3.07;2.30;;;25.50;99.90;;;;;;4965803;28;20394;-86
2023/07/14 11:29:14;;;;;;;4.18;2.35;;;25.90;99.90;;;;;;4990114;28;20485;-87
2023/07/14 11:32:00;;;;;;;3.35;2.30;;;26.10;1.00;;;;;;4981390;28;20395;-87
2023/07/14 11:34:33;;;;;;;2.75;2.10;;;25.80;1.00;;;;;;4987155;28;20401;-87
2023/07/14 11:37:22;;;;;;;3.53;2.30;;;26.00;1.00;;;;;;4982137;28;20417;-87
2023/07/14 11:39:58;;;;;;;4.30;2.40;;;26.10;1.00;;;;;;4992345;28;20514;-87
2023/07/14 11:42:27;;;;;;;2.93;2.63;;;26.00;1.00;;;;;;4994241;28;20405;-87
2023/07/14 11:44:55;;;;;;;3.35;2.40;;;26.40;1.00;;;;;;4988134;28;20394;-85
2023/07/14 11:47:33;;;;;;;2.40;2.20;;;26.30;1.00;;;;;;4991823;28;20465;-87
2023/07/14 11:50:03;;;;;;;3.20;2.30;;;26.60;1.00;;;;;;4997966;28;20474;-84
2023/07/14 11:52:30;;;;;;;3.60;2.20;;;26.80;1.00;;;;;;5006207;28;20478;-87
2023/07/14 11:55:31;;;;;;;2.40;2.20;;;26.60;1.00;;;;;;4993004;28;20421;-87
2023/07/14 11:58:22;;;;;;;3.55;2.42;;;26.00;1.00;;;;;;4897263;29;20444;-85
2023/07/14 12:01:12;;;;;;;2.50;2.30;;;26.70;15.20;;;;;;4978006;28;20465;-87
2023/07/14 12:03:52;;;;;;;3.53;2.57;;;26.40;1.00;;;;;;4959644;28;20401;-87
2023/07/14 12:06:39;;;;;;;4.72;2.30;;;25.90;1.00;;;;;;4979927;28;20914;-85
2023/07/14 12:09:33;;;;;;;2.65;2.25;;;25.80;90.90;;;;;;5001043;28;20410;-82
2023/07/14 12:15:41;;;;;;;2.60;2.40;;;26.00;99.90;;;;;;5018601;28;20370;-82
2023/07/14 12:18:22;;;;;;;3.42;2.40;;;27.50;4.10;;;;;;5018290;28;20408;-82
2023/07/14 12:20:49;;;;;;;3.75;2.20;;;27.40;1.00;;;;;;5000653;28;20445;-82
2023/07/14 12:23:27;;;;;;;3.10;2.00;;;27.10;1.00;;;;;;5021200;28;20412;-83
2023/07/14 12:26:08;;;;;;;3.22;2.30;;;27.00;1.00;;;;;;5012557;28;20455;-83
2023/07/14 12:28:36;;;;;;;2.60;2.40;;;26.90;1.00;;;;;;4999987;28;20402;-84
2023/07/14 12:31:13;;;;;;;4.93;2.30;;;26.10;1.00;;;;;;4990467;28;20434;-84
2023/07/14 12:33:39;;;;;;;3.65;2.47;;;26.70;1.00;;;;;;4989827;28;20391;-84
2023/07/14 12:36:09;;;;;;;3.38;2.40;;;27.90;1.00;;;;;;4972957;28;20495;-84
2023/07/14 12:38:35;;;;;;;2.70;2.00;;;28.50;1.00;;;;;;4989552;28;20460;-84
2023/07/14 12:41:02;;;;;;;4.93;2.00;;;29.00;1.00;;;;;;4973181;28;20399;-81
2023/07/14 12:43:33;;;;;;;4.00;2.80;;;28.50;1.00;;;;;;4991130;28;20422;-82
2023/07/14 12:46:01;;;;;;;2.60;2.20;;;28.50;1.00;;;;;;4974244;28;20409;-82
2023/07/14 12:48:31;;;;;;;4.65;2.25;;;29.00;1.00;;;;;;5002181;28;20401;-81
2023/07/14 12:50:57;;;;;;;2.75;2.28;;;28.70;1.00;;;;;;5038840;22;20440;-81
2023/07/14 12:53:23;;;;;;;3.70;2.30;;;28.70;1.00;;;;;;5016241;28;20555;-81
2023/07/14 12:55:48;;;;;;;3.80;2.50;;;28.80;1.00;;;;;;5017678;28;20883;-81
2023/07/14 12:58:22;;;;;;;3.20;2.50;;;28.20;1.00;;;;;;5017346;28;20432;-82
2023/07/14 13:00:53;;;;;;;4.30;2.10;;;28.60;1.00;;;;;;5015920;28;20389;-81
2023/07/14 13:03:19;;;;;;;3.38;2.00;;;28.30;1.00;;;;;;5014951;28;20384;-81
2023/07/14 13:05:48;;;;;;;3.17;2.40;;;28.90;1.00;;;;;;5017368;28;20394;-82
2023/07/14 13:08:19;;;;;;;2.53;2.10;;;28.90;1.00;;;;;;5015776;28;20421;-81
2023/07/14 13:10:46;;;;;;;2.65;2.38;;;29.40;1.00;;;;;;5016639;28;20377;-81